createdAt,value
2023-05-01T00:04:39.189Z,24.00
2023-05-01T00:09:43.528Z,23.90
2023-05-01T00:14:48.067Z,23.80
2023-05-01T00:19:53.799Z,23.60
2023-05-01T00:24:58.373Z,23.60
2023-05-01T00:30:02.871Z,23.60
2023-05-01T00:35:07.454Z,23.60
2023-05-01T00:40:12.215Z,23.50
2023-05-01T00:45:16.445Z,23.40
2023-05-01T00:50:21.126Z,23.40
2023-05-01T00:55:26.888Z,23.30
2023-05-01T01:00:31.713Z,23.20
2023-05-01T01:05:45.587Z,23.10
2023-05-01T01:11:35.049Z,23.00
2023-05-01T01:16:59.918Z,23.00
2023-05-01T01:22:16.175Z,23.00
2023-05-01T01:27:52.737Z,23.00
2023-05-01T01:33:34.641Z,23.30
2023-05-01T01:38:46.148Z,23.60
2023-05-01T01:44:16.264Z,23.90
2023-05-01T01:49:25.226Z,24.00
2023-05-01T01:54:39.557Z,24.20
2023-05-01T01:59:47.813Z,24.30
2023-05-01T02:04:54.400Z,24.30
2023-05-01T02:10:00.785Z,24.30
2023-05-01T02:15:08.034Z,24.30
2023-05-01T02:20:14.071Z,24.30
2023-05-01T02:25:20.101Z,24.40
2023-05-01T02:30:24.485Z,24.40
2023-05-01T02:35:28.653Z,24.50
2023-05-01T02:40:33.697Z,24.50
2023-05-01T02:45:42.803Z,24.50
2023-05-01T02:50:49.750Z,24.60
2023-05-01T02:55:54.196Z,24.60
2023-05-01T03:00:58.737Z,24.70
2023-05-01T03:06:03.755Z,24.70
2023-05-01T03:11:08.609Z,24.70
2023-05-01T03:16:12.919Z,24.70
2023-05-01T03:21:17.303Z,24.80
2023-05-01T03:26:21.459Z,24.80
2023-05-01T03:31:29.718Z,24.80
2023-05-01T03:36:34.305Z,24.70
2023-05-01T03:41:38.758Z,24.60
2023-05-01T03:46:49.853Z,24.50
2023-05-01T03:51:57.968Z,24.50
2023-05-01T03:57:02.424Z,24.50
2023-05-01T04:02:07.592Z,24.40
2023-05-01T04:07:14.277Z,24.30
2023-05-01T04:12:18.715Z,24.30
2023-05-01T04:17:23.264Z,24.10
2023-05-01T04:22:27.387Z,24.10
2023-05-01T04:27:32.477Z,23.90
2023-05-01T04:32:37.016Z,23.80
2023-05-01T04:37:41.227Z,23.80
2023-05-01T04:42:46.793Z,23.70
2023-05-01T04:47:51.156Z,23.60
2023-05-01T04:52:55.400Z,23.70
2023-05-01T04:57:59.710Z,23.60
2023-05-01T05:03:04.085Z,23.60
2023-05-01T05:08:09.922Z,23.60
2023-05-01T05:13:17.633Z,23.50
2023-05-01T05:18:22.054Z,23.40
2023-05-01T05:23:26.525Z,23.30
2023-05-01T05:28:31.699Z,23.30
2023-05-01T05:33:36.322Z,23.20
2023-05-01T05:38:40.980Z,23.20
2023-05-01T05:43:47.310Z,23.20
2023-05-01T05:48:52.083Z,23.10
2023-05-01T05:53:56.356Z,23.10
2023-05-01T05:59:05.056Z,23.00
2023-05-01T06:04:10.248Z,23.00
2023-05-01T06:09:17.837Z,23.20
2023-05-01T06:14:22.725Z,23.40
2023-05-01T06:19:26.856Z,23.60
2023-05-01T06:24:40.152Z,23.80
2023-05-01T06:29:45.724Z,23.90
2023-05-01T06:34:49.887Z,23.90
2023-05-01T06:39:57.394Z,23.90
2023-05-01T06:45:04.096Z,23.90
2023-05-01T06:50:08.976Z,23.90
2023-05-01T06:55:13.702Z,23.90
2023-05-01T07:00:18.921Z,23.80
2023-05-01T07:05:23.342Z,23.90
2023-05-01T07:10:27.955Z,23.90
2023-05-01T07:15:32.326Z,23.90
2023-05-01T07:20:36.316Z,23.90
2023-05-01T07:25:44.817Z,23.80
2023-05-01T07:30:49.294Z,23.80
2023-05-01T07:35:53.648Z,23.90
2023-05-01T07:40:58.163Z,23.90
2023-05-01T07:46:02.226Z,23.90
2023-05-01T07:51:07.068Z,23.90
2023-05-01T07:56:11.902Z,23.90
2023-05-01T08:01:16.244Z,23.90
2023-05-01T08:06:24.700Z,23.90
2023-05-01T08:11:31.033Z,23.90
2023-05-01T08:16:36.802Z,24.00
2023-05-01T08:21:41.189Z,24.00
2023-05-01T08:26:45.428Z,24.00
2023-05-01T08:31:49.491Z,24.00
2023-05-01T08:36:53.800Z,24.00
2023-05-01T08:41:58.958Z,24.10
2023-05-01T08:47:19.656Z,24.10
2023-05-01T08:52:28.092Z,24.10
2023-05-01T08:57:34.490Z,24.10
2023-05-01T09:02:40.089Z,24.20
2023-05-01T09:07:46.540Z,24.20
2023-05-01T09:13:01.345Z,24.30
2023-05-01T09:18:06.224Z,24.30
2023-05-01T09:23:10.511Z,24.30
2023-05-01T09:28:15.476Z,24.40
2023-05-01T09:33:19.930Z,24.30
2023-05-01T09:38:26.320Z,24.30
2023-05-01T09:43:31.976Z,24.30
2023-05-01T09:48:36.394Z,24.30
2023-05-01T09:53:42.222Z,24.40
2023-05-01T09:58:47.840Z,24.40
2023-05-01T10:03:56.979Z,24.40
2023-05-01T10:09:01.378Z,24.40
2023-05-01T10:14:08.212Z,24.40
2023-05-01T10:19:13.657Z,24.40
2023-05-01T10:24:19.036Z,24.40
2023-05-01T10:29:25.557Z,24.40
2023-05-01T10:34:32.376Z,24.50
2023-05-01T10:39:37.848Z,24.50
2023-05-01T10:44:43.376Z,24.50
2023-05-01T10:50:08.379Z,24.50
2023-05-01T10:55:38.829Z,24.50
2023-05-01T11:00:43.487Z,24.50
2023-05-01T11:06:00.935Z,24.60
2023-05-01T11:11:21.643Z,24.60
2023-05-01T11:16:41.063Z,24.60
2023-05-01T11:21:47.368Z,24.70
2023-05-01T11:26:52.885Z,24.60
2023-05-01T11:31:57.056Z,24.70
2023-05-01T11:37:01.468Z,24.70
2023-05-01T11:42:09.959Z,24.80
2023-05-01T11:47:14.927Z,24.80
2023-05-01T11:52:19.511Z,24.80
2023-05-01T11:57:24.849Z,24.90
2023-05-01T12:02:30.032Z,24.90
2023-05-01T12:07:37.190Z,24.90
2023-05-01T12:12:41.535Z,24.90
2023-05-01T12:17:47.384Z,24.90
2023-05-01T12:22:53.029Z,24.90
2023-05-01T12:27:57.529Z,24.90
2023-05-01T12:33:14.332Z,24.90
2023-05-01T12:38:23.395Z,24.90
2023-05-01T12:43:33.365Z,25.00
2023-05-01T12:48:39.745Z,24.90
2023-05-01T12:53:44.693Z,24.80
2023-05-01T12:58:48.849Z,24.80
2023-05-01T13:03:53.608Z,24.80
2023-05-01T13:09:09.811Z,24.70
2023-05-01T13:14:13.835Z,24.70
2023-05-01T13:19:29.290Z,24.70
2023-05-01T13:24:41.144Z,24.60
2023-05-01T13:29:54.838Z,24.60
2023-05-01T13:35:01.877Z,24.60
2023-05-01T13:40:07.157Z,24.60
2023-05-01T13:45:13.008Z,24.60
2023-05-01T13:50:18.499Z,24.50
2023-05-01T13:55:23.692Z,24.60
2023-05-01T14:00:27.891Z,24.50
2023-05-01T14:05:32.434Z,24.50
2023-05-01T14:10:37.022Z,24.60
2023-05-01T14:15:44.286Z,24.50
2023-05-01T14:20:48.916Z,24.50
2023-05-01T14:25:53.157Z,24.50
2023-05-01T14:30:57.353Z,24.50
2023-05-01T14:36:01.647Z,24.50
2023-05-01T14:41:06.795Z,24.50
2023-05-01T14:46:16.498Z,24.40
2023-05-01T14:51:21.005Z,24.40
2023-05-01T14:56:25.608Z,24.40
2023-05-01T15:01:29.793Z,24.40
2023-05-01T15:06:35.109Z,24.40
2023-05-01T15:11:39.296Z,24.30
2023-05-01T15:16:43.729Z,24.30
2023-05-01T15:21:47.777Z,24.30
2023-05-01T15:26:52.218Z,24.30
2023-05-01T15:32:08.239Z,24.30
2023-05-01T15:37:16.159Z,24.30
2023-05-01T15:42:21.306Z,24.30
2023-05-01T15:47:25.478Z,24.30
2023-05-01T15:52:29.890Z,24.20
2023-05-01T15:57:38.512Z,24.20
2023-05-01T16:02:44.261Z,24.20
2023-05-01T16:07:55.075Z,24.20
2023-05-01T16:12:59.303Z,24.20
2023-05-01T16:18:06.955Z,24.10
2023-05-01T16:23:12.579Z,24.10
2023-05-01T16:28:17.908Z,24.10
2023-05-01T16:33:24.025Z,24.20
2023-05-01T16:38:29.808Z,24.10
2023-05-01T16:43:33.935Z,24.10
2023-05-01T16:48:39.843Z,24.10
2023-05-01T16:53:44.255Z,24.10
2023-05-01T16:58:48.292Z,24.00
2023-05-01T17:03:53.594Z,24.10
2023-05-01T17:08:57.991Z,24.00
2023-05-01T17:14:02.952Z,24.00
2023-05-01T17:19:09.434Z,23.90
2023-05-01T17:24:14.805Z,23.90
2023-05-01T17:29:19.143Z,23.90
2023-05-01T17:34:24.382Z,23.90
2023-05-01T17:39:29.146Z,23.90
2023-05-01T17:44:34.477Z,23.90
2023-05-01T17:49:42.538Z,23.80
2023-05-01T17:54:48.308Z,23.80
2023-05-01T17:59:53.570Z,23.80
2023-05-01T18:04:58.685Z,23.80
2023-05-01T18:10:04.413Z,23.80
2023-05-01T18:15:10.944Z,23.80
2023-05-01T18:20:18.717Z,23.80
2023-05-01T18:25:23.988Z,23.80
2023-05-01T18:30:28.880Z,23.80
2023-05-01T18:35:34.342Z,23.90
2023-05-01T18:40:40.802Z,24.00
2023-05-01T18:45:46.387Z,24.10
2023-05-01T18:51:06.804Z,24.10
2023-05-01T18:56:14.493Z,24.10
2023-05-01T19:01:24.198Z,24.10
2023-05-01T19:06:31.383Z,24.10
2023-05-01T19:11:38.304Z,24.40
2023-05-01T19:16:46.506Z,24.30
2023-05-01T19:21:52.223Z,24.30
2023-05-01T19:27:02.361Z,24.20
2023-05-01T19:32:08.640Z,24.20
2023-05-01T19:37:20.295Z,24.30
2023-05-01T19:42:26.894Z,24.30
2023-05-01T19:47:34.421Z,24.20
2023-05-01T19:52:41.184Z,24.10
2023-05-01T19:57:46.964Z,24.10
2023-05-01T20:02:52.357Z,24.10
2023-05-01T20:07:59.134Z,24.10
2023-05-01T20:13:11.151Z,24.00
2023-05-01T20:18:17.349Z,23.90
2023-05-01T20:23:24.052Z,23.90
2023-05-01T20:28:28.898Z,23.90
2023-05-01T20:33:33.320Z,23.90
2023-05-01T20:38:46.169Z,24.00
2023-05-01T20:43:50.889Z,23.90
2023-05-01T20:48:56.559Z,23.90
2023-05-01T20:54:00.900Z,23.90
2023-05-01T20:59:05.533Z,23.90
2023-05-01T21:04:10.028Z,23.90
2023-05-01T21:09:15.363Z,23.80
2023-05-01T21:14:19.845Z,23.70
2023-05-01T21:19:24.042Z,23.70
2023-05-01T21:24:28.682Z,23.90
2023-05-01T21:29:34.565Z,23.90
2023-05-01T21:34:39.605Z,23.80
2023-05-01T21:39:44.494Z,23.80
2023-05-01T21:44:48.694Z,23.80
2023-05-01T21:49:58.239Z,23.70
2023-05-01T21:55:07.156Z,23.70
2023-05-01T22:00:12.052Z,23.70
2023-05-01T22:05:18.518Z,23.70
2023-05-01T22:10:22.764Z,23.70
2023-05-01T22:15:27.323Z,23.70
2023-05-01T22:20:32.714Z,23.60
2023-05-01T22:25:36.815Z,23.60
2023-05-01T22:30:41.156Z,23.60
2023-05-01T22:35:45.496Z,23.60
2023-05-01T22:40:49.744Z,23.50
2023-05-01T22:45:54.271Z,23.50
2023-05-01T22:50:58.840Z,23.60
2023-05-01T22:56:03.073Z,23.50
2023-05-01T23:01:07.525Z,23.60
2023-05-01T23:06:11.788Z,23.60
2023-05-01T23:11:18.576Z,23.60
2023-05-01T23:16:22.732Z,23.60
2023-05-01T23:21:27.122Z,23.60
2023-05-01T23:26:33.505Z,23.50
2023-05-01T23:31:47.388Z,23.60
2023-05-01T23:36:51.783Z,23.50
2023-05-01T23:41:56.136Z,23.50
2023-05-01T23:47:03.699Z,23.50
2023-05-01T23:52:08.605Z,23.60
2023-05-01T23:57:12.619Z,23.50
